sensor_id;sensor_type;location;lat;lon;timestamp;P1;durP1;ratioP1;P2;durP2;ratioP2
8714;SDS011;4394;51.208;8.904;2023-02-05T00:02:46;2.60;;;2.40;;
8714;SDS011;4394;51.208;8.904;2023-02-05T00:05:34;3.27;;;2.70;;
8714;SDS011;4394;51.208;8.904;2023-02-05T00:08:24;2.97;;;2.60;;
8714;SDS011;4394;51.208;8.904;2023-02-05T00:11:12;5.23;;;2.83;;
8714;SDS011;4394;51.208;8.904;2023-02-05T00:14:00;3.10;;;2.50;;
8714;SDS011;4394;51.208;8.904;2023-02-05T00:16:48;3.77;;;2.97;;
8714;SDS011;4394;51.208;8.904;2023-02-05T00:19:37;5.10;;;3.17;;
8714;SDS011;4394;51.208;8.904;2023-02-05T00:22:25;5.57;;;3.53;;
8714;SDS011;4394;51.208;8.904;2023-02-05T00:25:15;4.90;;;3.27;;
8714;SDS011;4394;51.208;8.904;2023-02-05T00:28:06;4.53;;;2.50;;
8714;SDS011;4394;51.208;8.904;2023-02-05T00:30:54;3.27;;;2.50;;
8714;SDS011;4394;51.208;8.904;2023-02-05T00:33:42;2.87;;;2.43;;
8714;SDS011;4394;51.208;8.904;2023-02-05T00:36:30;3.53;;;2.90;;
8714;SDS011;4394;51.208;8.904;2023-02-05T00:39:18;3.20;;;2.63;;
8714;SDS011;4394;51.208;8.904;2023-02-05T00:42:08;3.63;;;2.83;;
8714;SDS011;4394;51.208;8.904;2023-02-05T00:44:56;4.03;;;2.67;;
8714;SDS011;4394;51.208;8.904;2023-02-05T00:47:44;3.57;;;2.73;;
8714;SDS011;4394;51.208;8.904;2023-02-05T00:50:32;3.47;;;2.77;;
8714;SDS011;4394;51.208;8.904;2023-02-05T00:53:21;2.90;;;2.50;;
8714;SDS011;4394;51.208;8.904;2023-02-05T00:56:10;3.80;;;2.50;;
8714;SDS011;4394;51.208;8.904;2023-02-05T00:59:00;3.60;;;2.63;;
8714;SDS011;4394;51.208;8.904;2023-02-05T01:01:49;2.57;;;2.37;;
8714;SDS011;4394;51.208;8.904;2023-02-05T01:04:37;3.97;;;2.90;;
8714;SDS011;4394;51.208;8.904;2023-02-05T01:07:25;3.90;;;2.63;;
8714;SDS011;4394;51.208;8.904;2023-02-05T01:10:13;3.93;;;2.63;;
8714;SDS011;4394;51.208;8.904;2023-02-05T01:13:01;2.87;;;2.57;;
8714;SDS011;4394;51.208;8.904;2023-02-05T01:15:51;3.87;;;2.67;;
8714;SDS011;4394;51.208;8.904;2023-02-05T01:18:39;3.23;;;2.90;;
8714;SDS011;4394;51.208;8.904;2023-02-05T01:21:27;4.27;;;2.80;;
8714;SDS011;4394;51.208;8.904;2023-02-05T01:24:15;3.37;;;2.33;;
8714;SDS011;4394;51.208;8.904;2023-02-05T01:27:03;5.67;;;2.50;;
8714;SDS011;4394;51.208;8.904;2023-02-05T01:29:51;3.80;;;2.53;;
8714;SDS011;4394;51.208;8.904;2023-02-05T01:32:40;3.03;;;2.47;;
8714;SDS011;4394;51.208;8.904;2023-02-05T01:35:28;2.50;;;2.30;;
8714;SDS011;4394;51.208;8.904;2023-02-05T01:38:17;3.97;;;2.70;;
8714;SDS011;4394;51.208;8.904;2023-02-05T01:41:05;4.87;;;2.60;;
8714;SDS011;4394;51.208;8.904;2023-02-05T01:44:04;3.10;;;2.70;;
8714;SDS011;4394;51.208;8.904;2023-02-05T01:46:54;2.90;;;2.40;;
8714;SDS011;4394;51.208;8.904;2023-02-05T01:49:44;2.40;;;2.17;;
8714;SDS011;4394;51.208;8.904;2023-02-05T01:52:32;3.23;;;2.50;;
8714;SDS011;4394;51.208;8.904;2023-02-05T01:55:20;3.23;;;2.33;;
8714;SDS011;4394;51.208;8.904;2023-02-05T01:58:08;3.63;;;2.33;;
8714;SDS011;4394;51.208;8.904;2023-02-05T02:00:56;2.90;;;2.60;;
8714;SDS011;4394;51.208;8.904;2023-02-05T02:03:45;2.80;;;2.40;;
8714;SDS011;4394;51.208;8.904;2023-02-05T02:06:36;2.97;;;2.50;;
8714;SDS011;4394;51.208;8.904;2023-02-05T02:09:24;2.57;;;2.00;;
8714;SDS011;4394;51.208;8.904;2023-02-05T02:12:13;3.37;;;2.10;;
8714;SDS011;4394;51.208;8.904;2023-02-05T02:15:05;2.33;;;2.10;;
8714;SDS011;4394;51.208;8.904;2023-02-05T02:17:56;2.87;;;2.10;;
8714;SDS011;4394;51.208;8.904;2023-02-05T02:28:02;4.60;;;2.53;;
8714;SDS011;4394;51.208;8.904;2023-02-05T02:30:55;2.63;;;2.30;;
8714;SDS011;4394;51.208;8.904;2023-02-05T02:33:49;4.93;;;2.70;;
8714;SDS011;4394;51.208;8.904;2023-02-05T02:36:45;3.47;;;2.60;;
8714;SDS011;4394;51.208;8.904;2023-02-05T02:39:39;2.67;;;2.40;;
8714;SDS011;4394;51.208;8.904;2023-02-05T02:42:31;2.97;;;2.27;;
8714;SDS011;4394;51.208;8.904;2023-02-05T02:45:23;2.53;;;2.33;;
8714;SDS011;4394;51.208;8.904;2023-02-05T02:48:14;2.83;;;2.10;;
8714;SDS011;4394;51.208;8.904;2023-02-05T02:51:06;3.67;;;2.50;;
8714;SDS011;4394;51.208;8.904;2023-02-05T02:53:56;3.77;;;2.47;;
8714;SDS011;4394;51.208;8.904;2023-02-05T02:56:47;2.87;;;2.30;;
8714;SDS011;4394;51.208;8.904;2023-02-05T02:59:37;3.60;;;2.50;;
8714;SDS011;4394;51.208;8.904;2023-02-05T03:02:28;3.23;;;2.23;;
8714;SDS011;4394;51.208;8.904;2023-02-05T03:05:20;2.97;;;2.30;;
8714;SDS011;4394;51.208;8.904;2023-02-05T03:08:11;2.37;;;1.97;;
8714;SDS011;4394;51.208;8.904;2023-02-05T03:11:04;3.90;;;2.60;;
8714;SDS011;4394;51.208;8.904;2023-02-05T03:13:56;3.67;;;2.27;;
8714;SDS011;4394;51.208;8.904;2023-02-05T03:16:44;2.77;;;2.40;;
8714;SDS011;4394;51.208;8.904;2023-02-05T03:19:34;3.73;;;2.37;;
8714;SDS011;4394;51.208;8.904;2023-02-05T03:22:22;3.87;;;2.40;;
8714;SDS011;4394;51.208;8.904;2023-02-05T03:25:10;5.13;;;2.50;;
8714;SDS011;4394;51.208;8.904;2023-02-05T03:27:58;3.57;;;2.50;;
8714;SDS011;4394;51.208;8.904;2023-02-05T03:30:52;3.70;;;2.20;;
8714;SDS011;4394;51.208;8.904;2023-02-05T03:33:46;4.97;;;2.30;;
8714;SDS011;4394;51.208;8.904;2023-02-05T03:36:45;3.30;;;2.47;;
8714;SDS011;4394;51.208;8.904;2023-02-05T03:39:44;4.50;;;2.50;;
8714;SDS011;4394;51.208;8.904;2023-02-05T03:42:42;3.83;;;2.30;;
8714;SDS011;4394;51.208;8.904;2023-02-05T03:45:41;3.33;;;2.53;;
8714;SDS011;4394;51.208;8.904;2023-02-05T03:48:38;3.17;;;2.47;;
8714;SDS011;4394;51.208;8.904;2023-02-05T03:51:35;4.57;;;2.50;;
8714;SDS011;4394;51.208;8.904;2023-02-05T03:54:28;2.77;;;2.50;;
8714;SDS011;4394;51.208;8.904;2023-02-05T03:57:23;3.17;;;2.70;;
8714;SDS011;4394;51.208;8.904;2023-02-05T04:00:14;2.40;;;2.03;;
8714;SDS011;4394;51.208;8.904;2023-02-05T04:03:03;3.43;;;2.40;;
8714;SDS011;4394;51.208;8.904;2023-02-05T04:05:51;3.87;;;2.30;;
8714;SDS011;4394;51.208;8.904;2023-02-05T04:08:39;4.27;;;2.30;;
8714;SDS011;4394;51.208;8.904;2023-02-05T04:11:30;3.03;;;2.67;;
8714;SDS011;4394;51.208;8.904;2023-02-05T04:14:18;3.37;;;2.40;;
8714;SDS011;4394;51.208;8.904;2023-02-05T04:17:07;2.83;;;2.50;;
8714;SDS011;4394;51.208;8.904;2023-02-05T04:19:57;3.73;;;2.83;;
8714;SDS011;4394;51.208;8.904;2023-02-05T04:22:45;4.60;;;2.60;;
8714;SDS011;4394;51.208;8.904;2023-02-05T04:25:34;3.73;;;2.30;;
8714;SDS011;4394;51.208;8.904;2023-02-05T04:28:24;2.90;;;2.47;;
8714;SDS011;4394;51.208;8.904;2023-02-05T04:31:12;3.87;;;2.63;;
8714;SDS011;4394;51.208;8.904;2023-02-05T04:34:00;3.60;;;2.37;;
8714;SDS011;4394;51.208;8.904;2023-02-05T04:36:48;4.37;;;2.80;;
8714;SDS011;4394;51.208;8.904;2023-02-05T04:39:36;3.93;;;2.93;;
8714;SDS011;4394;51.208;8.904;2023-02-05T04:42:24;3.47;;;2.80;;
8714;SDS011;4394;51.208;8.904;2023-02-05T04:45:13;4.00;;;2.80;;
8714;SDS011;4394;51.208;8.904;2023-02-05T04:48:02;3.13;;;2.63;;
8714;SDS011;4394;51.208;8.904;2023-02-05T04:50:51;4.10;;;3.23;;
8714;SDS011;4394;51.208;8.904;2023-02-05T04:53:39;3.90;;;3.00;;
8714;SDS011;4394;51.208;8.904;2023-02-05T04:56:28;3.53;;;2.77;;
8714;SDS011;4394;51.208;8.904;2023-02-05T04:59:16;3.37;;;2.87;;
8714;SDS011;4394;51.208;8.904;2023-02-05T05:02:05;4.40;;;3.50;;
8714;SDS011;4394;51.208;8.904;2023-02-05T05:04:54;4.67;;;3.63;;
8714;SDS011;4394;51.208;8.904;2023-02-05T05:07:42;3.93;;;2.93;;
8714;SDS011;4394;51.208;8.904;2023-02-05T05:10:30;4.07;;;2.80;;
8714;SDS011;4394;51.208;8.904;2023-02-05T05:13:18;3.40;;;2.90;;
8714;SDS011;4394;51.208;8.904;2023-02-05T05:16:06;3.87;;;3.17;;
8714;SDS011;4394;51.208;8.904;2023-02-05T05:18:57;4.23;;;2.87;;
8714;SDS011;4394;51.208;8.904;2023-02-05T05:21:45;5.40;;;3.20;;
8714;SDS011;4394;51.208;8.904;2023-02-05T05:24:33;6.53;;;2.87;;
8714;SDS011;4394;51.208;8.904;2023-02-05T05:27:21;3.53;;;2.90;;
8714;SDS011;4394;51.208;8.904;2023-02-05T05:30:10;4.20;;;3.20;;
8714;SDS011;4394;51.208;8.904;2023-02-05T05:32:59;5.20;;;3.30;;
8714;SDS011;4394;51.208;8.904;2023-02-05T05:35:49;4.03;;;3.33;;
8714;SDS011;4394;51.208;8.904;2023-02-05T05:38:37;4.63;;;2.93;;
8714;SDS011;4394;51.208;8.904;2023-02-05T05:41:25;3.57;;;2.90;;
8714;SDS011;4394;51.208;8.904;2023-02-05T05:44:42;5.07;;;3.40;;
8714;SDS011;4394;51.208;8.904;2023-02-05T05:47:35;4.93;;;3.33;;
8714;SDS011;4394;51.208;8.904;2023-02-05T05:50:23;4.07;;;3.27;;
8714;SDS011;4394;51.208;8.904;2023-02-05T05:53:13;5.70;;;3.40;;
8714;SDS011;4394;51.208;8.904;2023-02-05T05:56:01;4.90;;;3.40;;
8714;SDS011;4394;51.208;8.904;2023-02-05T05:58:49;5.07;;;3.23;;
8714;SDS011;4394;51.208;8.904;2023-02-05T06:01:37;5.03;;;3.50;;
8714;SDS011;4394;51.208;8.904;2023-02-05T06:04:25;5.53;;;3.87;;
8714;SDS011;4394;51.208;8.904;2023-02-05T06:07:14;5.23;;;3.50;;
8714;SDS011;4394;51.208;8.904;2023-02-05T06:10:03;5.13;;;3.60;;
8714;SDS011;4394;51.208;8.904;2023-02-05T06:12:52;5.17;;;3.63;;
8714;SDS011;4394;51.208;8.904;2023-02-05T06:15:40;5.93;;;3.37;;
8714;SDS011;4394;51.208;8.904;2023-02-05T06:18:28;4.40;;;3.87;;
8714;SDS011;4394;51.208;8.904;2023-02-05T06:21:16;6.83;;;4.00;;
8714;SDS011;4394;51.208;8.904;2023-02-05T06:24:04;5.47;;;3.90;;
8714;SDS011;4394;51.208;8.904;2023-02-05T06:26:54;6.70;;;4.10;;
8714;SDS011;4394;51.208;8.904;2023-02-05T06:29:42;5.68;;;4.30;;
8714;SDS011;4394;51.208;8.904;2023-02-05T06:32:30;5.67;;;4.30;;
8714;SDS011;4394;51.208;8.904;2023-02-05T06:35:19;6.03;;;4.17;;
8714;SDS011;4394;51.208;8.904;2023-02-05T06:38:07;6.40;;;4.10;;
8714;SDS011;4394;51.208;8.904;2023-02-05T06:40:56;6.40;;;4.40;;
8714;SDS011;4394;51.208;8.904;2023-02-05T06:43:45;5.47;;;3.93;;
8714;SDS011;4394;51.208;8.904;2023-02-05T06:46:33;8.33;;;4.30;;
8714;SDS011;4394;51.208;8.904;2023-02-05T06:49:21;6.10;;;4.47;;
8714;SDS011;4394;51.208;8.904;2023-02-05T06:52:09;5.60;;;3.90;;
8714;SDS011;4394;51.208;8.904;2023-02-05T06:54:57;5.23;;;4.30;;
8714;SDS011;4394;51.208;8.904;2023-02-05T06:57:46;6.07;;;4.03;;
8714;SDS011;4394;51.208;8.904;2023-02-05T07:00:35;5.83;;;4.20;;
8714;SDS011;4394;51.208;8.904;2023-02-05T07:03:23;8.07;;;4.43;;
8714;SDS011;4394;51.208;8.904;2023-02-05T07:06:11;5.93;;;4.53;;
8714;SDS011;4394;51.208;8.904;2023-02-05T07:09:00;7.57;;;4.23;;
8714;SDS011;4394;51.208;8.904;2023-02-05T07:11:48;5.80;;;4.53;;
8714;SDS011;4394;51.208;8.904;2023-02-05T07:14:37;6.43;;;4.90;;
8714;SDS011;4394;51.208;8.904;2023-02-05T07:17:27;6.97;;;5.00;;
8714;SDS011;4394;51.208;8.904;2023-02-05T07:20:15;8.00;;;4.87;;
8714;SDS011;4394;51.208;8.904;2023-02-05T07:23:04;9.33;;;4.80;;
8714;SDS011;4394;51.208;8.904;2023-02-05T07:25:53;7.37;;;4.40;;
8714;SDS011;4394;51.208;8.904;2023-02-05T07:28:41;6.27;;;4.53;;
8714;SDS011;4394;51.208;8.904;2023-02-05T07:31:30;6.77;;;4.73;;
8714;SDS011;4394;51.208;8.904;2023-02-05T07:34:19;7.53;;;4.87;;
8714;SDS011;4394;51.208;8.904;2023-02-05T07:37:09;6.37;;;4.63;;
8714;SDS011;4394;51.208;8.904;2023-02-05T07:39:57;7.10;;;5.00;;
8714;SDS011;4394;51.208;8.904;2023-02-05T07:42:46;7.77;;;4.87;;
8714;SDS011;4394;51.208;8.904;2023-02-05T07:45:34;8.07;;;5.10;;
8714;SDS011;4394;51.208;8.904;2023-02-05T07:48:22;7.90;;;5.17;;
8714;SDS011;4394;51.208;8.904;2023-02-05T07:51:15;7.20;;;5.33;;
8714;SDS011;4394;51.208;8.904;2023-02-05T07:54:05;8.03;;;5.17;;
8714;SDS011;4394;51.208;8.904;2023-02-05T07:56:53;7.23;;;5.23;;
8714;SDS011;4394;51.208;8.904;2023-02-05T07:59:41;6.87;;;5.23;;
8714;SDS011;4394;51.208;8.904;2023-02-05T08:02:29;8.83;;;5.10;;
8714;SDS011;4394;51.208;8.904;2023-02-05T08:05:17;7.53;;;5.43;;
8714;SDS011;4394;51.208;8.904;2023-02-05T08:08:07;5.97;;;5.17;;
8714;SDS011;4394;51.208;8.904;2023-02-05T08:10:56;8.47;;;6.00;;
8714;SDS011;4394;51.208;8.904;2023-02-05T08:13:46;7.17;;;5.40;;
8714;SDS011;4394;51.208;8.904;2023-02-05T08:16:34;7.47;;;5.80;;
8714;SDS011;4394;51.208;8.904;2023-02-05T08:19:23;7.23;;;5.10;;
8714;SDS011;4394;51.208;8.904;2023-02-05T08:22:11;7.27;;;5.33;;
8714;SDS011;4394;51.208;8.904;2023-02-05T08:25:01;7.97;;;5.20;;
8714;SDS011;4394;51.208;8.904;2023-02-05T08:27:49;6.73;;;5.27;;
8714;SDS011;4394;51.208;8.904;2023-02-05T08:30:37;8.33;;;5.23;;
8714;SDS011;4394;51.208;8.904;2023-02-05T08:33:26;6.80;;;5.67;;
8714;SDS011;4394;51.208;8.904;2023-02-05T08:36:14;8.27;;;6.20;;
8714;SDS011;4394;51.208;8.904;2023-02-05T08:39:02;9.67;;;5.33;;
8714;SDS011;4394;51.208;8.904;2023-02-05T08:41:52;10.17;;;5.97;;
8714;SDS011;4394;51.208;8.904;2023-02-05T08:44:42;7.70;;;5.57;;
8714;SDS011;4394;51.208;8.904;2023-02-05T08:47:30;8.40;;;5.70;;
8714;SDS011;4394;51.208;8.904;2023-02-05T08:50:20;7.20;;;5.10;;
8714;SDS011;4394;51.208;8.904;2023-02-05T08:53:08;6.73;;;5.30;;
8714;SDS011;4394;51.208;8.904;2023-02-05T08:55:57;7.57;;;5.70;;
8714;SDS011;4394;51.208;8.904;2023-02-05T08:58:47;7.13;;;5.50;;
8714;SDS011;4394;51.208;8.904;2023-02-05T09:01:35;9.93;;;5.50;;
8714;SDS011;4394;51.208;8.904;2023-02-05T09:04:26;8.33;;;5.47;;
8714;SDS011;4394;51.208;8.904;2023-02-05T09:07:14;7.23;;;5.10;;
8714;SDS011;4394;51.208;8.904;2023-02-05T09:10:04;7.50;;;5.10;;
8714;SDS011;4394;51.208;8.904;2023-02-05T09:12:53;6.43;;;5.40;;
8714;SDS011;4394;51.208;8.904;2023-02-05T09:15:43;7.30;;;5.43;;
8714;SDS011;4394;51.208;8.904;2023-02-05T09:18:34;7.33;;;5.80;;
8714;SDS011;4394;51.208;8.904;2023-02-05T09:21:22;7.70;;;5.17;;
8714;SDS011;4394;51.208;8.904;2023-02-05T09:24:11;7.40;;;5.27;;
8714;SDS011;4394;51.208;8.904;2023-02-05T09:26:59;7.67;;;5.50;;
8714;SDS011;4394;51.208;8.904;2023-02-05T09:29:47;7.43;;;5.40;;
8714;SDS011;4394;51.208;8.904;2023-02-05T09:32:37;6.63;;;5.03;;
8714;SDS011;4394;51.208;8.904;2023-02-05T09:35:25;6.40;;;5.23;;
8714;SDS011;4394;51.208;8.904;2023-02-05T09:38:13;7.13;;;5.50;;
8714;SDS011;4394;51.208;8.904;2023-02-05T09:41:04;8.27;;;6.20;;
8714;SDS011;4394;51.208;8.904;2023-02-05T09:44:00;9.80;;;5.80;;
8714;SDS011;4394;51.208;8.904;2023-02-05T09:46:59;10.00;;;6.00;;
8714;SDS011;4394;51.208;8.904;2023-02-05T09:49:58;7.90;;;5.43;;
8714;SDS011;4394;51.208;8.904;2023-02-05T09:52:52;8.33;;;6.03;;
8714;SDS011;4394;51.208;8.904;2023-02-05T09:55:47;7.40;;;6.07;;
8714;SDS011;4394;51.208;8.904;2023-02-05T09:58:38;7.93;;;5.97;;
8714;SDS011;4394;51.208;8.904;2023-02-05T10:01:33;6.77;;;5.20;;
8714;SDS011;4394;51.208;8.904;2023-02-05T10:04:27;7.20;;;4.97;;
8714;SDS011;4394;51.208;8.904;2023-02-05T10:07:29;7.43;;;5.20;;
8714;SDS011;4394;51.208;8.904;2023-02-05T10:10:24;6.67;;;5.00;;
8714;SDS011;4394;51.208;8.904;2023-02-05T10:13:23;6.20;;;4.63;;
8714;SDS011;4394;51.208;8.904;2023-02-05T10:16:21;7.17;;;5.10;;
8714;SDS011;4394;51.208;8.904;2023-02-05T10:19:40;5.73;;;4.63;;
8714;SDS011;4394;51.208;8.904;2023-02-05T10:22:45;5.57;;;4.60;;
8714;SDS011;4394;51.208;8.904;2023-02-05T10:25:59;6.03;;;4.73;;
8714;SDS011;4394;51.208;8.904;2023-02-05T10:32:14;5.33;;;4.67;;
8714;SDS011;4394;51.208;8.904;2023-02-05T10:35:11;6.27;;;4.80;;
8714;SDS011;4394;51.208;8.904;2023-02-05T10:38:12;4.93;;;4.43;;
8714;SDS011;4394;51.208;8.904;2023-02-05T10:41:06;6.40;;;4.73;;
8714;SDS011;4394;51.208;8.904;2023-02-05T10:44:02;6.10;;;4.50;;
8714;SDS011;4394;51.208;8.904;2023-02-05T10:46:58;6.27;;;4.77;;
8714;SDS011;4394;51.208;8.904;2023-02-05T10:49:52;5.87;;;4.67;;
8714;SDS011;4394;51.208;8.904;2023-02-05T10:52:45;5.70;;;4.50;;
8714;SDS011;4394;51.208;8.904;2023-02-05T10:55:34;5.27;;;4.30;;
8714;SDS011;4394;51.208;8.904;2023-02-05T10:58:32;6.40;;;4.73;;
8714;SDS011;4394;51.208;8.904;2023-02-05T11:01:28;6.60;;;4.70;;
8714;SDS011;4394;51.208;8.904;2023-02-05T11:04:18;5.90;;;4.80;;
8714;SDS011;4394;51.208;8.904;2023-02-05T11:07:18;5.93;;;4.50;;
8714;SDS011;4394;51.208;8.904;2023-02-05T11:10:11;6.67;;;5.03;;
8714;SDS011;4394;51.208;8.904;2023-02-05T11:13:03;7.93;;;5.80;;
8714;SDS011;4394;51.208;8.904;2023-02-05T11:16:05;6.27;;;4.70;;
8714;SDS011;4394;51.208;8.904;2023-02-05T11:18:55;6.90;;;5.47;;
8714;SDS011;4394;51.208;8.904;2023-02-05T11:21:45;5.90;;;4.93;;
8714;SDS011;4394;51.208;8.904;2023-02-05T11:24:36;6.70;;;5.07;;
8714;SDS011;4394;51.208;8.904;2023-02-05T11:27:27;6.03;;;4.70;;
8714;SDS011;4394;51.208;8.904;2023-02-05T11:30:20;7.50;;;5.30;;
8714;SDS011;4394;51.208;8.904;2023-02-05T11:33:31;8.33;;;5.83;;
8714;SDS011;4394;51.208;8.904;2023-02-05T11:36:21;7.73;;;5.33;;
8714;SDS011;4394;51.208;8.904;2023-02-05T11:39:13;7.73;;;5.53;;
8714;SDS011;4394;51.208;8.904;2023-02-05T11:42:16;6.60;;;5.27;;
8714;SDS011;4394;51.208;8.904;2023-02-05T11:45:14;5.47;;;4.87;;
8714;SDS011;4394;51.208;8.904;2023-02-05T11:48:19;6.40;;;4.93;;
8714;SDS011;4394;51.208;8.904;2023-02-05T11:51:11;5.03;;;4.20;;
8714;SDS011;4394;51.208;8.904;2023-02-05T11:54:01;5.87;;;4.73;;
8714;SDS011;4394;51.208;8.904;2023-02-05T11:57:01;8.50;;;4.90;;
8714;SDS011;4394;51.208;8.904;2023-02-05T11:59:53;5.67;;;4.90;;
8714;SDS011;4394;51.208;8.904;2023-02-05T12:02:42;5.80;;;4.90;;
8714;SDS011;4394;51.208;8.904;2023-02-05T12:05:33;6.60;;;5.00;;
8714;SDS011;4394;51.208;8.904;2023-02-05T12:08:27;6.73;;;5.00;;
8714;SDS011;4394;51.208;8.904;2023-02-05T12:11:22;5.90;;;5.10;;
8714;SDS011;4394;51.208;8.904;2023-02-05T12:14:59;7.47;;;5.53;;
8714;SDS011;4394;51.208;8.904;2023-02-05T12:17:56;6.60;;;5.20;;
8714;SDS011;4394;51.208;8.904;2023-02-05T12:21:01;6.90;;;5.47;;
8714;SDS011;4394;51.208;8.904;2023-02-05T12:24:04;7.00;;;5.60;;
8714;SDS011;4394;51.208;8.904;2023-02-05T12:27:12;6.20;;;4.90;;
8714;SDS011;4394;51.208;8.904;2023-02-05T12:30:14;7.63;;;5.60;;
8714;SDS011;4394;51.208;8.904;2023-02-05T12:33:21;7.27;;;5.30;;
8714;SDS011;4394;51.208;8.904;2023-02-05T12:39:52;6.10;;;5.10;;
8714;SDS011;4394;51.208;8.904;2023-02-05T12:42:47;6.83;;;5.33;;
8714;SDS011;4394;51.208;8.904;2023-02-05T12:45:44;7.60;;;5.73;;
8714;SDS011;4394;51.208;8.904;2023-02-05T12:48:45;7.73;;;5.37;;
8714;SDS011;4394;51.208;8.904;2023-02-05T12:52:16;8.47;;;5.93;;
8714;SDS011;4394;51.208;8.904;2023-02-05T12:55:17;7.10;;;5.50;;
8714;SDS011;4394;51.208;8.904;2023-02-05T12:58:15;7.63;;;5.93;;
8714;SDS011;4394;51.208;8.904;2023-02-05T13:01:07;8.40;;;6.27;;
8714;SDS011;4394;51.208;8.904;2023-02-05T13:04:00;7.90;;;6.20;;
8714;SDS011;4394;51.208;8.904;2023-02-05T13:06:52;6.83;;;5.33;;
8714;SDS011;4394;51.208;8.904;2023-02-05T13:09:48;6.53;;;4.97;;
8714;SDS011;4394;51.208;8.904;2023-02-05T13:12:42;7.37;;;5.33;;
8714;SDS011;4394;51.208;8.904;2023-02-05T13:15:35;7.60;;;6.10;;
8714;SDS011;4394;51.208;8.904;2023-02-05T13:18:28;7.60;;;5.90;;
8714;SDS011;4394;51.208;8.904;2023-02-05T13:21:20;7.40;;;5.37;;
8714;SDS011;4394;51.208;8.904;2023-02-05T13:24:28;7.47;;;5.30;;
8714;SDS011;4394;51.208;8.904;2023-02-05T13:27:39;7.33;;;5.90;;
8714;SDS011;4394;51.208;8.904;2023-02-05T13:30:48;7.73;;;5.90;;
8714;SDS011;4394;51.208;8.904;2023-02-05T13:33:41;8.33;;;6.40;;
8714;SDS011;4394;51.208;8.904;2023-02-05T13:36:44;7.13;;;5.33;;
8714;SDS011;4394;51.208;8.904;2023-02-05T13:40:08;7.43;;;6.17;;
8714;SDS011;4394;51.208;8.904;2023-02-05T13:43:24;7.53;;;6.20;;
8714;SDS011;4394;51.208;8.904;2023-02-05T13:46:43;7.87;;;5.70;;
8714;SDS011;4394;51.208;8.904;2023-02-05T13:56:40;8.47;;;6.23;;
8714;SDS011;4394;51.208;8.904;2023-02-05T13:59:36;10.13;;;6.90;;
8714;SDS011;4394;51.208;8.904;2023-02-05T14:02:29;10.20;;;6.97;;
8714;SDS011;4394;51.208;8.904;2023-02-05T14:05:26;9.23;;;6.93;;
8714;SDS011;4394;51.208;8.904;2023-02-05T14:08:18;9.73;;;6.97;;
8714;SDS011;4394;51.208;8.904;2023-02-05T14:11:08;10.60;;;7.50;;
8714;SDS011;4394;51.208;8.904;2023-02-05T14:14:18;9.10;;;6.50;;
8714;SDS011;4394;51.208;8.904;2023-02-05T14:20:41;9.33;;;6.33;;
8714;SDS011;4394;51.208;8.904;2023-02-05T14:26:47;8.33;;;5.90;;
8714;SDS011;4394;51.208;8.904;2023-02-05T14:29:37;6.77;;;5.43;;
8714;SDS011;4394;51.208;8.904;2023-02-05T14:35:47;7.90;;;5.47;;
8714;SDS011;4394;51.208;8.904;2023-02-05T14:38:35;7.20;;;5.07;;
8714;SDS011;4394;51.208;8.904;2023-02-05T14:41:26;8.63;;;6.17;;
8714;SDS011;4394;51.208;8.904;2023-02-05T14:44:19;8.80;;;6.03;;
8714;SDS011;4394;51.208;8.904;2023-02-05T14:47:16;7.03;;;5.73;;
8714;SDS011;4394;51.208;8.904;2023-02-05T14:50:10;7.57;;;5.90;;
8714;SDS011;4394;51.208;8.904;2023-02-05T14:53:14;7.77;;;5.73;;
8714;SDS011;4394;51.208;8.904;2023-02-05T14:56:20;7.80;;;5.87;;
8714;SDS011;4394;51.208;8.904;2023-02-05T14:59:16;8.33;;;6.03;;
8714;SDS011;4394;51.208;8.904;2023-02-05T15:05:31;7.30;;;5.63;;
8714;SDS011;4394;51.208;8.904;2023-02-05T15:08:26;7.10;;;5.07;;
8714;SDS011;4394;51.208;8.904;2023-02-05T15:11:28;7.30;;;5.10;;
8714;SDS011;4394;51.208;8.904;2023-02-05T15:14:38;6.20;;;5.17;;
8714;SDS011;4394;51.208;8.904;2023-02-05T15:17:42;6.43;;;4.43;;
8714;SDS011;4394;51.208;8.904;2023-02-05T15:20:38;6.63;;;4.63;;
8714;SDS011;4394;51.208;8.904;2023-02-05T15:23:33;5.50;;;4.23;;
8714;SDS011;4394;51.208;8.904;2023-02-05T15:26:27;5.87;;;4.70;;
8714;SDS011;4394;51.208;8.904;2023-02-05T15:29:23;5.73;;;4.67;;
8714;SDS011;4394;51.208;8.904;2023-02-05T15:32:16;5.33;;;4.07;;
8714;SDS011;4394;51.208;8.904;2023-02-05T15:35:10;4.93;;;4.00;;
8714;SDS011;4394;51.208;8.904;2023-02-05T15:38:06;5.53;;;3.80;;
8714;SDS011;4394;51.208;8.904;2023-02-05T15:41:09;4.80;;;3.30;;
8714;SDS011;4394;51.208;8.904;2023-02-05T15:43:59;5.63;;;3.60;;
8714;SDS011;4394;51.208;8.904;2023-02-05T15:46:48;4.13;;;3.10;;
8714;SDS011;4394;51.208;8.904;2023-02-05T15:49:38;3.87;;;3.07;;
8714;SDS011;4394;51.208;8.904;2023-02-05T15:52:29;5.30;;;2.77;;
8714;SDS011;4394;51.208;8.904;2023-02-05T15:55:20;4.07;;;3.20;;
8714;SDS011;4394;51.208;8.904;2023-02-05T15:58:12;3.83;;;2.90;;
8714;SDS011;4394;51.208;8.904;2023-02-05T16:01:06;3.33;;;2.63;;
8714;SDS011;4394;51.208;8.904;2023-02-05T16:03:54;4.23;;;3.20;;
8714;SDS011;4394;51.208;8.904;2023-02-05T16:06:42;4.07;;;2.83;;
8714;SDS011;4394;51.208;8.904;2023-02-05T16:09:33;2.43;;;2.23;;
8714;SDS011;4394;51.208;8.904;2023-02-05T16:12:25;2.80;;;2.50;;
8714;SDS011;4394;51.208;8.904;2023-02-05T16:15:13;3.83;;;2.77;;
8714;SDS011;4394;51.208;8.904;2023-02-05T16:18:01;3.33;;;3.00;;
8714;SDS011;4394;51.208;8.904;2023-02-05T16:20:53;3.97;;;3.10;;
8714;SDS011;4394;51.208;8.904;2023-02-05T16:23:46;3.57;;;2.87;;
8714;SDS011;4394;51.208;8.904;2023-02-05T16:26:41;3.43;;;2.93;;
8714;SDS011;4394;51.208;8.904;2023-02-05T16:29:37;4.10;;;2.90;;
8714;SDS011;4394;51.208;8.904;2023-02-05T16:32:34;3.17;;;2.53;;
8714;SDS011;4394;51.208;8.904;2023-02-05T16:35:28;3.17;;;2.57;;
8714;SDS011;4394;51.208;8.904;2023-02-05T16:38:20;2.83;;;2.17;;
8714;SDS011;4394;51.208;8.904;2023-02-05T16:41:16;3.63;;;2.17;;
8714;SDS011;4394;51.208;8.904;2023-02-05T16:44:24;2.50;;;2.03;;
8714;SDS011;4394;51.208;8.904;2023-02-05T16:47:17;3.83;;;2.53;;
8714;SDS011;4394;51.208;8.904;2023-02-05T16:53:23;3.43;;;2.27;;
8714;SDS011;4394;51.208;8.904;2023-02-05T16:56:13;2.37;;;2.13;;
8714;SDS011;4394;51.208;8.904;2023-02-05T16:59:09;3.27;;;2.60;;
8714;SDS011;4394;51.208;8.904;2023-02-05T17:02:05;2.87;;;2.10;;
8714;SDS011;4394;51.208;8.904;2023-02-05T17:05:20;2.77;;;2.40;;
8714;SDS011;4394;51.208;8.904;2023-02-05T17:08:09;3.40;;;2.70;;
8714;SDS011;4394;51.208;8.904;2023-02-05T17:11:02;3.07;;;2.77;;
8714;SDS011;4394;51.208;8.904;2023-02-05T17:13:51;3.03;;;2.60;;
8714;SDS011;4394;51.208;8.904;2023-02-05T17:16:58;3.83;;;2.83;;
8714;SDS011;4394;51.208;8.904;2023-02-05T17:20:03;4.37;;;3.10;;
8714;SDS011;4394;51.208;8.904;2023-02-05T17:23:06;2.70;;;2.40;;
8714;SDS011;4394;51.208;8.904;2023-02-05T17:25:58;2.80;;;2.50;;
8714;SDS011;4394;51.208;8.904;2023-02-05T17:28:49;3.33;;;2.93;;
8714;SDS011;4394;51.208;8.904;2023-02-05T17:31:40;4.33;;;3.30;;
8714;SDS011;4394;51.208;8.904;2023-02-05T17:34:29;3.30;;;2.80;;
8714;SDS011;4394;51.208;8.904;2023-02-05T17:37:18;3.97;;;2.87;;
8714;SDS011;4394;51.208;8.904;2023-02-05T17:40:07;3.30;;;3.00;;
8714;SDS011;4394;51.208;8.904;2023-02-05T17:42:56;5.37;;;3.67;;
8714;SDS011;4394;51.208;8.904;2023-02-05T17:45:44;3.80;;;3.17;;
8714;SDS011;4394;51.208;8.904;2023-02-05T17:48:32;4.90;;;3.90;;
8714;SDS011;4394;51.208;8.904;2023-02-05T17:51:21;4.67;;;3.90;;
8714;SDS011;4394;51.208;8.904;2023-02-05T17:54:13;6.27;;;4.37;;
8714;SDS011;4394;51.208;8.904;2023-02-05T17:57:09;5.90;;;4.10;;
8714;SDS011;4394;51.208;8.904;2023-02-05T18:00:00;7.60;;;4.83;;
8714;SDS011;4394;51.208;8.904;2023-02-05T18:02:50;6.60;;;5.13;;
8714;SDS011;4394;51.208;8.904;2023-02-05T18:05:38;6.90;;;5.67;;
8714;SDS011;4394;51.208;8.904;2023-02-05T18:08:27;6.37;;;4.60;;
8714;SDS011;4394;51.208;8.904;2023-02-05T18:11:16;7.37;;;5.40;;
8714;SDS011;4394;51.208;8.904;2023-02-05T18:14:04;8.97;;;6.03;;
8714;SDS011;4394;51.208;8.904;2023-02-05T18:16:53;10.47;;;6.13;;
8714;SDS011;4394;51.208;8.904;2023-02-05T18:19:41;7.70;;;5.33;;
8714;SDS011;4394;51.208;8.904;2023-02-05T18:22:29;10.47;;;6.43;;
8714;SDS011;4394;51.208;8.904;2023-02-05T18:25:18;8.43;;;5.80;;
8714;SDS011;4394;51.208;8.904;2023-02-05T18:28:09;6.80;;;4.93;;
8714;SDS011;4394;51.208;8.904;2023-02-05T18:30:58;6.93;;;5.13;;